Bewolking Meer informatie Parkstad Weather Satellite


Neerslagradar Meer informatie Parkstad Rain Snow Radar


Onweersbuien Meer informatie Parkstad Lighntning


24/7 Weercamera Meer informatie Parkstad Weathercam


Natuurbrandrisico
CBI






Het weer levert geen direct gevaar op in Parkstad.    Er zijn geen waarschuwingen afgegeven voor Parkstad (045)

Select another period ( hide this area )

Eenheden Periode Custom range Directly to
Metrisch Engels Beide
Dagelijkse Wekelijkse Maandelijkse Jaarlijkse
use both date-selectors for a custom range
previous Dag
With this date

WeatherUnderground graphs for this period ( click here ) Loading the graph can take up to a minute!


Dagelijkse Samenvatting Dinsdag 29 september 2020
Tijd Temp. ( °C ) Dew pt. ( °C ) Wind ( km/h ) van Windvlaag ( km/h ) Luchtdruk ( hPa ) Humid.( % ) Rainrate ( cm ) Zonneschijn ( W/m2 )
Hoog13,6 13,2 20,0 WZW ( 727/1252 ) 23,0 1014,6 100 1,52 504
Gemiddeld12,4 12,2 8,0 Zuiden #61/156 9,4 1011,9 99 1,30 80 #57/156
Laag11,4 10,3 -   0,0 1009,8 93 -  
Dagelijkse Tabular details for Dinsdag 29 september 2020
Tijd Temp. ( °C ) Dew pt. ( °C ) Wind ( km/h ) van Windvlaag ( km/h ) Luchtdruk ( hPa ) Humid.( % ) Rainrate ( cm ) Zonneschijn ( W/m2 )
00:04 11,4 10,3   Windstil 10,0 1009,8 93 - -
00:09 11,4 10,3   Windstil   1009,8 93 - -
00:14 11,4 10,3   Windstil   1010,2 93 - -
00:19 11,4 10,3   Windstil   1010,2 93 - -
00:24 11,4 10,3 6,0 Zuiden 6,0 1010,2 93 - -
00:29 11,6 10,7 1,0 Zuiden 6,0 1010,2 94 - -
00:34 11,6 10,7   Windstil 6,0 1010,2 94 - -
00:39 11,6 10,7   Windstil 6,0 1010,2 94 - -
00:44 11,6 10,7   Windstil   1010,2 94 - -
00:49 11,6 10,7 5,0 Zuiden 6,0 1010,2 94 - -
00:54 11,6 10,8 1,0 Zuiden 6,0 1010,2 95 - -
00:59 11,6 10,8 3,0 Zuiden 6,0 1010,2 95 - -
01:04 11,7 10,9 6,0 Zuiden 6,0 1010,2 95 - -
01:09 11,7 10,9 5,0 Zuiden 5,0 1010,2 95 - -
01:14 11,7 10,9 3,0 Zuiden 6,0 1010,2 95 - -
01:19 11,7 11,1   Windstil   1010,2 96 - -
01:24 11,7 11,1 3,0 Zuiden 3,0 1010,2 96 - -
01:29 11,7 11,1   Windstil   1010,2 96 - -
01:34 11,7 11,1   Windstil   1010,2 96 - -
01:39 11,7 11,1   Windstil   1010,2 96 - -
01:44 11,7 11,1   Windstil   1010,2 96 - -
01:49 11,7 11,2   Windstil   1010,2 97 - -
01:54 11,7 11,2   Windstil   1010,2 97 - -
01:59 11,7 11,2   Windstil   1010,2 97 - -
02:04 11,7 11,2   Windstil   1010,2 97 - -
02:09 11,8 11,3   Windstil   1010,2 97 - -
02:14 11,8 11,3   Windstil   1010,2 97 - -
02:19 11,8 11,5   Windstil 2,0 1010,2 98 - -
02:24 11,8 11,5 3,0 Zuiden 3,0 1010,2 98 - -
02:29 11,8 11,5 3,0 Zuiden 5,0 1010,2 98 - -
02:34 11,8 11,5 1,0 Zuiden 2,0 1010,2 98 - -
02:39 11,9 11,6 3,0 Zuiden 3,0 1010,2 98 - -
02:44 11,9 11,6 1,0 Zuiden 2,0 1010,2 98 - -
02:49 11,9 11,7 5,0 Zuiden 5,0 1010,2 99 - -
02:54 12,0 11,8 5,0 Zuiden 6,0 1010,2 99 - -
02:59 12,0 11,8 5,0 Zuiden 6,0 1010,2 99 - -
03:04 12,1 11,9 10,0 Zuiden 10,0 1010,2 99 - -
03:09 12,1 11,9 6,0 Zuiden 8,0 1010,2 99 - -
03:14 12,2 12,0 8,0 Zuiden 10,0 1010,2 99 - -
03:19 12,3 12,1 8,0 Zuiden 8,0 1010,2 99 - -
03:24 12,3 12,1   Windstil 3,0 1010,2 99 - -
03:29 12,3 12,1   Windstil 8,0 1010,5 99 - -
03:34 12,3 12,1 3,0 Zuiden 3,0 1010,5 99 - -
03:39 12,3 12,3 3,0 Zuiden 3,0 1010,5 100 - -
03:44 12,3 12,3   Windstil 2,0 1010,5 100 - -
03:49 12,3 12,3 3,0 Zuiden 3,0 1010,5 100 - -
03:54 12,3 12,3 5,0 Zuiden 5,0 1010,5 100 - -
03:59 12,4 12,4 6,0 Zuiden 6,0 1010,5 100 - -
04:04 12,4 12,4 5,0 Zuiden 6,0 1010,5 100 - -
04:09 12,5 12,5 5,0 Zuiden 6,0 1010,5 100 - -
04:14 12,5 12,5 6,0 Zuiden 6,0 1010,8 100 - -
04:19 12,6 12,6 8,0 Zuiden 8,0 1010,8 100 - -
04:24 12,6 12,6 6,0 Zuiden 6,0 1010,8 100 - -
04:29 12,7 12,7 8,0 Zuiden 10,0 1010,8 100 - -
04:34 12,7 12,7 6,0 Zuiden 8,0 1010,8 100 - -
04:39 12,7 12,7 10,0 Zuiden 10,0 1010,8 100 - -
04:44 12,7 12,7 1,0 Zuiden 2,0 1010,8 100 - -
04:49 12,7 12,7 5,0 Zuiden 5,0 1010,8 100 - -
04:54 12,7 12,7 3,0 Zuiden 3,0 1010,8 100 - -
04:59 12,7 12,7 5,0 Zuiden 5,0 1010,8 100 - -
05:04 12,7 12,7 5,0 Zuiden 5,0 1010,8 100 - -
05:09 12,7 12,7 5,0 Zuiden 5,0 1010,8 100 0,25 -
05:14 12,8 12,8 5,0 Zuiden 5,0 1010,8 100 0,25 -
05:19 12,8 12,8 8,0 Zuiden 8,0 1010,8 100 0,25 -
05:24 12,8 12,8 3,0 Zuiden 8,0 1010,8 100 0,25 -
05:29 12,8 12,8 8,0 Zuiden 8,0 1011,2 100 0,25 -
05:34 12,9 12,9 6,0 Zuiden 8,0 1011,2 100 0,25 -
05:39 12,9 12,9 6,0 Zuiden 8,0 1011,2 100 0,25 -
05:44 13,0 13,0 11,0 Zuiden 11,0 1011,2 100 0,51 -
05:49 13,0 13,0 8,0 Zuiden 8,0 1011,2 100 0,51 -
05:54 13,1 13,1 11,0 Zuiden 11,0 1011,2 100 0,51 -
05:59 13,1 13,1 8,0 Zuiden 8,0 1011,2 100 0,51 -
06:04 13,1 13,1 14,0 Zuiden 15,0 1011,2 100 0,51 -
06:09 13,1 13,1 11,0 Zuiden 11,0 1011,2 100 0,51 -
06:14 13,2 13,2 10,0 Zuiden 15,0 1011,2 100 0,51 -
06:19 13,2 13,2 8,0 Zuiden 10,0 1011,2 100 0,51 -
06:24 13,2 13,2 6,0 Zuiden 10,0 1011,2 100 0,51 -
06:29 13,2 13,2 10,0 Zuiden 10,0 1011,2 100 0,51 -
06:34 13,2 13,2 8,0 Zuiden 13,0 1011,2 100 0,51 -
06:39 13,2 13,2 8,0 Zuiden 10,0 1011,2 100 0,51 -
06:44 13,1 13,1 10,0 Zuiden 13,0 1011,5 100 0,51 -
06:49 13,1 13,1 11,0 Zuiden 15,0 1011,5 100 0,25 -
06:54 13,1 13,1 10,0 Zuiden 10,0 1011,5 100 0,25 -
06:59 13,0 13,0 14,0 ZZW 15,0 1011,9 100 0,51 -
07:04 13,0 13,0 11,0 ZZW 11,0 1011,9 100 0,51 -
07:09 13,0 13,0 11,0 ZZW 15,0 1011,9 100 0,51 -
07:14 12,9 12,9 11,0 ZZW 13,0 1011,9 100 0,51 -
07:19 12,9 12,9 10,0 ZZW 11,0 1011,9 100 0,51 -
07:24 12,9 12,9 10,0 ZZW 11,0 1011,9 100 0,51 -
07:29 12,9 12,9 11,0 ZZW 11,0 1011,9 100 0,51 -
07:34 12,8 12,8 11,0 ZZW 15,0 1011,9 100 0,76 -
07:39 12,8 12,8 13,0 ZW 15,0 1011,9 100 1,02 -
07:44 12,8 12,8 14,0 ZW 16,0 1012,2 100 1,02 -
07:49 12,8 12,8 14,0 ZW 15,0 1012,2 100 1,27 -
07:54 12,8 12,8 16,0 ZW 16,0 1012,2 100 1,27 -
07:59 12,8 12,8 10,0 ZW 15,0 1012,2 100 1,27 -
08:04 12,7 12,7 14,0 WZW 15,0 1012,2 100 1,27 -
08:09 12,7 12,7 11,0 WZW 11,0 1012,2 100 1,27 -
08:14 12,7 12,7 11,0 WZW 15,0 1012,5 100 1,52 -
08:19 12,7 12,7 10,0 WZW 10,0 1012,5 100 1,27 5
08:24 12,7 12,7 15,0 WZW 15,0 1012,5 100 1,27 9
08:29 12,7 12,7 10,0 WZW 10,0 1012,9 100 1,27 11
08:34 12,7 12,7 10,0 WZW 11,0 1012,9 100 1,27 16
08:39 12,7 12,7 8,0 WZW 10,0 1012,9 100 1,02 14
08:44 12,7 12,7 11,0 WZW 11,0 1012,9 100 0,76 12
08:49 12,7 12,7 8,0 WZW 11,0 1012,9 100 0,76 11
08:54 12,7 12,7 11,0 WZW 13,0 1012,9 100 0,76 18
08:59 12,7 12,7 13,0 WZW 13,0 1012,9 100 0,76 16
09:04 12,5 12,5 15,0 WZW 16,0 1012,9 100 0,51 16
09:09 12,3 12,3 11,0 WZW 11,0 1012,9 100 0,51 18
09:14 12,3 12,3 13,0 WZW 16,0 1013,2 100 0,76 19
09:19 12,3 12,3 14,0 WZW 16,0 1013,2 100 0,51 23
09:24 12,2 12,2 16,0 WZW 16,0 1013,2 100 0,51 25
09:29 12,1 12,1 16,0 WZW 16,0 1013,2 100 0,51 26
09:34 12,1 12,1 13,0 WZW 15,0 1013,2 100 0,51 23
09:39 12,0 12,0 20,0 WZW 23,0 1013,2 100 0,51 23
09:44 12,0 12,0 20,0 WZW 19,0 1013,6 100 0,51 33
09:49 11,9 11,9 11,0 WZW 23,0 1013,6 100 0,51 67
09:54 11,9 11,9 11,0 WZW 11,0 1013,6 100 0,25 70
09:59 11,9 11,9 18,0 WZW 18,0 1013,9 100 0,25 62
10:04 11,9 11,9 10,0 WZW 10,0 1013,9 100 0,25 44
10:09 11,9 11,9 14,0 WZW 18,0 1013,9 100 0,25 33
10:14 11,9 11,9 10,0 WZW 10,0 1013,9 100 0,25 39
10:19 12,0 12,0 11,0 WZW 15,0 1013,9 100 - 53
10:24 12,0 12,0 10,0 WZW 11,0 1013,9 100 - 54
10:29 12,1 12,1 11,0 WZW 11,0 1013,9 100 - 63
10:34 12,1 12,1 13,0 WZW 13,0 1013,9 100 - 63
10:39 12,2 12,2 13,0 WZW 13,0 1013,9 100 - 60
10:44 12,2 12,2 6,0 WZW 8,0 1014,2 100 - 58
10:49 12,2 12,2 10,0 WZW 13,0 1014,2 100 - 42
10:54 12,2 12,2 11,0 WZW 13,0 1014,2 100 - 37
10:59 12,2 12,2 11,0 WZW 11,0 1014,2 100 - 47
11:04 12,3 12,3 10,0 WZW 11,0 1014,2 100 - 65
11:09 12,2 12,2 11,0 WZW 13,0 1014,2 100 - 91
11:14 12,2 12,2 14,0 WZW 16,0 1014,6 100 - 91
11:19 12,2 12,2 11,0 WZW 16,0 1014,6 100 - 90
11:24 12,3 12,3 13,0 WZW 16,0 1014,6 100 - 83
11:29 12,3 12,3 11,0 WZW 16,0 1014,6 100 - 123
11:34 12,3 12,3 11,0 WZW 13,0 1014,6 100 - 137
11:39 12,4 12,4 16,0 WZW 16,0 1014,6 100 - 130
11:44 12,5 12,5 11,0 WZW 13,0 1014,6 100 - 121
11:49 12,6 12,5 16,0 WZW 16,0 1014,6 100 - 105
11:54 12,6 12,4 13,0 WZW 13,0 1014,6 99 - 88
11:59 12,6 12,4 14,0 WZW 16,0 1014,6 99 - 81
12:04 12,6 12,3 14,0 WZW 15,0 1014,6 98 - 76
12:09 12,6 12,3 11,0 WZW 11,0 1014,6 98 - 67
12:14 12,6 12,3 11,0 WZW 11,0 1014,6 98 - 81
12:19 12,6 12,1 10,0 WZW 10,0 1014,6 97 - 107
12:24 12,7 12,2 11,0 WZW 11,0 1014,6 97 - 125
12:29 12,8 12,2 8,0 WZW 8,0 1014,6 97 - 155
12:34 12,8 12,2 10,0 WZW 10,0 1014,6 96 - 171
12:39 13,0 12,4 10,0 WZW 10,0 1014,6 96 - 202
12:44 13,2 12,5 11,0 WZW 15,0 1014,6 96 - 221
12:49 13,3 12,5 8,0 WZW 11,0 1014,6 95 - 244
12:54 13,4 12,5 14,0 WZW 16,0 1014,6 94 - 313
12:59 13,6 12,3 18,0 WZW 18,0 1014,6 93 - 504
Dagelijkse Samenvatting Dinsdag 29 september 2020
Tijd Temp. ( °C ) Dew pt. ( °C ) Wind ( km/h ) van Windvlaag ( km/h ) Luchtdruk ( hPa ) Humid.( % ) Rainrate ( cm ) Zonneschijn ( W/m2 )
Hoog13,6 13,2 20,0 WZW ( 727/1252 ) 23,0 1014,6 100 1,52 504
Gemiddeld12,4 12,2 8,0 Zuiden #61/156 9,4 1011,9 99 1,30 80 #57/156
Laag11,4 10,3 -   0,0 1009,8 93 -  
Dagelijkse Tabular details for Dinsdag 29 september 2020
Tijd Temp. ( °C ) Dew pt. ( °C ) Wind ( km/h ) van Windvlaag ( km/h ) Luchtdruk ( hPa ) Humid.( % ) Rainrate ( cm ) Zonneschijn ( W/m2 )
00:04 11,4 10,3   Windstil 10,0 1009,8 93 - -
00:09 11,4 10,3   Windstil   1009,8 93 - -
00:14 11,4 10,3   Windstil   1010,2 93 - -
00:19 11,4 10,3   Windstil   1010,2 93 - -
00:24 11,4 10,3 6,0 Zuiden 6,0 1010,2 93 - -
00:29 11,6 10,7 1,0 Zuiden 6,0 1010,2 94 - -
00:34 11,6 10,7   Windstil 6,0 1010,2 94 - -
00:39 11,6 10,7   Windstil 6,0 1010,2 94 - -
00:44 11,6 10,7   Windstil   1010,2 94 - -
00:49 11,6 10,7 5,0 Zuiden 6,0 1010,2 94 - -
00:54 11,6 10,8 1,0 Zuiden 6,0 1010,2 95 - -
00:59 11,6 10,8 3,0 Zuiden 6,0 1010,2 95 - -
01:04 11,7 10,9 6,0 Zuiden 6,0 1010,2 95 - -
01:09 11,7 10,9 5,0 Zuiden 5,0 1010,2 95 - -
01:14 11,7 10,9 3,0 Zuiden 6,0 1010,2 95 - -
01:19 11,7 11,1   Windstil   1010,2 96 - -
01:24 11,7 11,1 3,0 Zuiden 3,0 1010,2 96 - -
01:29 11,7 11,1   Windstil   1010,2 96 - -
01:34 11,7 11,1   Windstil   1010,2 96 - -
01:39 11,7 11,1   Windstil   1010,2 96 - -
01:44 11,7 11,1   Windstil   1010,2 96 - -
01:49 11,7 11,2   Windstil   1010,2 97 - -
01:54 11,7 11,2   Windstil   1010,2 97 - -
01:59 11,7 11,2   Windstil   1010,2 97 - -
02:04 11,7 11,2   Windstil   1010,2 97 - -
02:09 11,8 11,3   Windstil   1010,2 97 - -
02:14 11,8 11,3   Windstil   1010,2 97 - -
02:19 11,8 11,5   Windstil 2,0 1010,2 98 - -
02:24 11,8 11,5 3,0 Zuiden 3,0 1010,2 98 - -
02:29 11,8 11,5 3,0 Zuiden 5,0 1010,2 98 - -
02:34 11,8 11,5 1,0 Zuiden 2,0 1010,2 98 - -
02:39 11,9 11,6 3,0 Zuiden 3,0 1010,2 98 - -
02:44 11,9 11,6 1,0 Zuiden 2,0 1010,2 98 - -
02:49 11,9 11,7 5,0 Zuiden 5,0 1010,2 99 - -
02:54 12,0 11,8 5,0 Zuiden 6,0 1010,2 99 - -
02:59 12,0 11,8 5,0 Zuiden 6,0 1010,2 99 - -
03:04 12,1 11,9 10,0 Zuiden 10,0 1010,2 99 - -
03:09 12,1 11,9 6,0 Zuiden 8,0 1010,2 99 - -
03:14 12,2 12,0 8,0 Zuiden 10,0 1010,2 99 - -
03:19 12,3 12,1 8,0 Zuiden 8,0 1010,2 99 - -
03:24 12,3 12,1   Windstil 3,0 1010,2 99 - -
03:29 12,3 12,1   Windstil 8,0 1010,5 99 - -
03:34 12,3 12,1 3,0 Zuiden 3,0 1010,5 99 - -
03:39 12,3 12,3 3,0 Zuiden 3,0 1010,5 100 - -
03:44 12,3 12,3   Windstil 2,0 1010,5 100 - -
03:49 12,3 12,3 3,0 Zuiden 3,0 1010,5 100 - -
03:54 12,3 12,3 5,0 Zuiden 5,0 1010,5 100 - -
03:59 12,4 12,4 6,0 Zuiden 6,0 1010,5 100 - -
04:04 12,4 12,4 5,0 Zuiden 6,0 1010,5 100 - -
04:09 12,5 12,5 5,0 Zuiden 6,0 1010,5 100 - -
04:14 12,5 12,5 6,0 Zuiden 6,0 1010,8 100 - -
04:19 12,6 12,6 8,0 Zuiden 8,0 1010,8 100 - -
04:24 12,6 12,6 6,0 Zuiden 6,0 1010,8 100 - -
04:29 12,7 12,7 8,0 Zuiden 10,0 1010,8 100 - -
04:34 12,7 12,7 6,0 Zuiden 8,0 1010,8 100 - -
04:39 12,7 12,7 10,0 Zuiden 10,0 1010,8 100 - -
04:44 12,7 12,7 1,0 Zuiden 2,0 1010,8 100 - -
04:49 12,7 12,7 5,0 Zuiden 5,0 1010,8 100 - -
04:54 12,7 12,7 3,0 Zuiden 3,0 1010,8 100 - -
04:59 12,7 12,7 5,0 Zuiden 5,0 1010,8 100 - -
05:04 12,7 12,7 5,0 Zuiden 5,0 1010,8 100 - -
05:09 12,7 12,7 5,0 Zuiden 5,0 1010,8 100 0,25 -
05:14 12,8 12,8 5,0 Zuiden 5,0 1010,8 100 0,25 -
05:19 12,8 12,8 8,0 Zuiden 8,0 1010,8 100 0,25 -
05:24 12,8 12,8 3,0 Zuiden 8,0 1010,8 100 0,25 -
05:29 12,8 12,8 8,0 Zuiden 8,0 1011,2 100 0,25 -
05:34 12,9 12,9 6,0 Zuiden 8,0 1011,2 100 0,25 -
05:39 12,9 12,9 6,0 Zuiden 8,0 1011,2 100 0,25 -
05:44 13,0 13,0 11,0 Zuiden 11,0 1011,2 100 0,51 -
05:49 13,0 13,0 8,0 Zuiden 8,0 1011,2 100 0,51 -
05:54 13,1 13,1 11,0 Zuiden 11,0 1011,2 100 0,51 -
05:59 13,1 13,1 8,0 Zuiden 8,0 1011,2 100 0,51 -
06:04 13,1 13,1 14,0 Zuiden 15,0 1011,2 100 0,51 -
06:09 13,1 13,1 11,0 Zuiden 11,0 1011,2 100 0,51 -
06:14 13,2 13,2 10,0 Zuiden 15,0 1011,2 100 0,51 -
06:19 13,2 13,2 8,0 Zuiden 10,0 1011,2 100 0,51 -
06:24 13,2 13,2 6,0 Zuiden 10,0 1011,2 100 0,51 -
06:29 13,2 13,2 10,0 Zuiden 10,0 1011,2 100 0,51 -
06:34 13,2 13,2 8,0 Zuiden 13,0 1011,2 100 0,51 -
06:39 13,2 13,2 8,0 Zuiden 10,0 1011,2 100 0,51 -
06:44 13,1 13,1 10,0 Zuiden 13,0 1011,5 100 0,51 -
06:49 13,1 13,1 11,0 Zuiden 15,0 1011,5 100 0,25 -
06:54 13,1 13,1 10,0 Zuiden 10,0 1011,5 100 0,25 -
06:59 13,0 13,0 14,0 ZZW 15,0 1011,9 100 0,51 -
07:04 13,0 13,0 11,0 ZZW 11,0 1011,9 100 0,51 -
07:09 13,0 13,0 11,0 ZZW 15,0 1011,9 100 0,51 -
07:14 12,9 12,9 11,0 ZZW 13,0 1011,9 100 0,51 -
07:19 12,9 12,9 10,0 ZZW 11,0 1011,9 100 0,51 -
07:24 12,9 12,9 10,0 ZZW 11,0 1011,9 100 0,51 -
07:29 12,9 12,9 11,0 ZZW 11,0 1011,9 100 0,51 -
07:34 12,8 12,8 11,0 ZZW 15,0 1011,9 100 0,76 -
07:39 12,8 12,8 13,0 ZW 15,0 1011,9 100 1,02 -
07:44 12,8 12,8 14,0 ZW 16,0 1012,2 100 1,02 -
07:49 12,8 12,8 14,0 ZW 15,0 1012,2 100 1,27 -
07:54 12,8 12,8 16,0 ZW 16,0 1012,2 100 1,27 -
07:59 12,8 12,8 10,0 ZW 15,0 1012,2 100 1,27 -
08:04 12,7 12,7 14,0 WZW 15,0 1012,2 100 1,27 -
08:09 12,7 12,7 11,0 WZW 11,0 1012,2 100 1,27 -
08:14 12,7 12,7 11,0 WZW 15,0 1012,5 100 1,52 -
08:19 12,7 12,7 10,0 WZW 10,0 1012,5 100 1,27 5
08:24 12,7 12,7 15,0 WZW 15,0 1012,5 100 1,27 9
08:29 12,7 12,7 10,0 WZW 10,0 1012,9 100 1,27 11
08:34 12,7 12,7 10,0 WZW 11,0 1012,9 100 1,27 16
08:39 12,7 12,7 8,0 WZW 10,0 1012,9 100 1,02 14
08:44 12,7 12,7 11,0 WZW 11,0 1012,9 100 0,76 12
08:49 12,7 12,7 8,0 WZW 11,0 1012,9 100 0,76 11
08:54 12,7 12,7 11,0 WZW 13,0 1012,9 100 0,76 18
08:59 12,7 12,7 13,0 WZW 13,0 1012,9 100 0,76 16
09:04 12,5 12,5 15,0 WZW 16,0 1012,9 100 0,51 16
09:09 12,3 12,3 11,0 WZW 11,0 1012,9 100 0,51 18
09:14 12,3 12,3 13,0 WZW 16,0 1013,2 100 0,76 19
09:19 12,3 12,3 14,0 WZW 16,0 1013,2 100 0,51 23
09:24 12,2 12,2 16,0 WZW 16,0 1013,2 100 0,51 25
09:29 12,1 12,1 16,0 WZW 16,0 1013,2 100 0,51 26
09:34 12,1 12,1 13,0 WZW 15,0 1013,2 100 0,51 23
09:39 12,0 12,0 20,0 WZW 23,0 1013,2 100 0,51 23
09:44 12,0 12,0 20,0 WZW 19,0 1013,6 100 0,51 33
09:49 11,9 11,9 11,0 WZW 23,0 1013,6 100 0,51 67
09:54 11,9 11,9 11,0 WZW 11,0 1013,6 100 0,25 70
09:59 11,9 11,9 18,0 WZW 18,0 1013,9 100 0,25 62
10:04 11,9 11,9 10,0 WZW 10,0 1013,9 100 0,25 44
10:09 11,9 11,9 14,0 WZW 18,0 1013,9 100 0,25 33
10:14 11,9 11,9 10,0 WZW 10,0 1013,9 100 0,25 39
10:19 12,0 12,0 11,0 WZW 15,0 1013,9 100 - 53
10:24 12,0 12,0 10,0 WZW 11,0 1013,9 100 - 54
10:29 12,1 12,1 11,0 WZW 11,0 1013,9 100 - 63
10:34 12,1 12,1 13,0 WZW 13,0 1013,9 100 - 63
10:39 12,2 12,2 13,0 WZW 13,0 1013,9 100 - 60
10:44 12,2 12,2 6,0 WZW 8,0 1014,2 100 - 58
10:49 12,2 12,2 10,0 WZW 13,0 1014,2 100 - 42
10:54 12,2 12,2 11,0 WZW 13,0 1014,2 100 - 37
10:59 12,2 12,2 11,0 WZW 11,0 1014,2 100 - 47
11:04 12,3 12,3 10,0 WZW 11,0 1014,2 100 - 65
11:09 12,2 12,2 11,0 WZW 13,0 1014,2 100 - 91
11:14 12,2 12,2 14,0 WZW 16,0 1014,6 100 - 91
11:19 12,2 12,2 11,0 WZW 16,0 1014,6 100 - 90
11:24 12,3 12,3 13,0 WZW 16,0 1014,6 100 - 83
11:29 12,3 12,3 11,0 WZW 16,0 1014,6 100 - 123
11:34 12,3 12,3 11,0 WZW 13,0 1014,6 100 - 137
11:39 12,4 12,4 16,0 WZW 16,0 1014,6 100 - 130
11:44 12,5 12,5 11,0 WZW 13,0 1014,6 100 - 121
11:49 12,6 12,5 16,0 WZW 16,0 1014,6 100 - 105
11:54 12,6 12,4 13,0 WZW 13,0 1014,6 99 - 88
11:59 12,6 12,4 14,0 WZW 16,0 1014,6 99 - 81
12:04 12,6 12,3 14,0 WZW 15,0 1014,6 98 - 76
12:09 12,6 12,3 11,0 WZW 11,0 1014,6 98 - 67
12:14 12,6 12,3 11,0 WZW 11,0 1014,6 98 - 81
12:19 12,6 12,1 10,0 WZW 10,0 1014,6 97 - 107
12:24 12,7 12,2 11,0 WZW 11,0 1014,6 97 - 125
12:29 12,8 12,2 8,0 WZW 8,0 1014,6 97 - 155
12:34 12,8 12,2 10,0 WZW 10,0 1014,6 96 - 171
12:39 13,0 12,4 10,0 WZW 10,0 1014,6 96 - 202
12:44 13,2 12,5 11,0 WZW 15,0 1014,6 96 - 221
12:49 13,3 12,5 8,0 WZW 11,0 1014,6 95 - 244
12:54 13,4 12,5 14,0 WZW 16,0 1014,6 94 - 313
12:59 13,6 12,3 18,0 WZW 18,0 1014,6 93 - 504

Download your copy of this data-set  here

U vindt ons ook hier:

Het Weer Aktueel

WOW Nederland KNMI

Vereniging voor Weerkunde en Klimatologie

UK Met Office Weather Observation Website (WOW)

WeatherCloud

Weather Underground

Awekas

MeteoMap.Cloud

HAMweather, WeatherForYou, PWS Weather

Citizen Weather Observer Program (CWOP)

Apparatuur in gebruik:

Hardwareleverancier
Weerhuisje

Weerstation
Vantage Pro2+ UV

Weercomputer's
alix3d2 & wl330n

Weerprogramma's
Smartbedded

Satelliet NOAA's
WRX137 & KX137

Satelliet Eumetsat
Ayecka SR1 & Triax

Bliksemdetectie
Boltek StormTracker

Webleverancier
F-Service

Weerhuisje

Vantage Pro2+ UV

alix3d2 & wl330n

Smartbedded

WRX137 & KX137

Ayecka SR1 & Triax

Boltek StormTracker

F-Service